Moffett Field, CA

6:35 PM PDT on August 22, 2014 (GMT -0700)
Moffett Federal Air Field | Change Station
CLOSE
Current Station
Airport
Location: Moffett NAS,
Elevation: 39 ft
Nearby Weather Stations

Elev 39 ft 37.41 °N, 122.05 °W | Updated 39 minutes ago

Clear
Clear
73 °F
Feels Like 73 °F
N
22
Wind Variable Wind from NNW

Today
High -- | Low -- °F
--% Chance of Precip.
Yesterday
High -- | Low -- °F
Precip. -- in
6:30 AM 7:51 PM
Waning Crescent, 6% visible
Pressure 29.90 in
Visibility 10.0 miles
Clouds Clear
Dew Point 58 °F
Humidity 59%
Rainfall 0.00 in
Snow Depth Not available.
UV 2 out of 12
Pollen 5.70 out of 12
Ozone Good
PM2.5 Good
Flu Activity Not available.
METAR KNUQ 230056Z 34019KT 10SM CLR 23/14 A2989 RMK AO2 SLP124 T02280144

More Conditions Fewer Conditions

Pressure 29.90 in
Visibility 10.0 miles
Clouds Clear
Dew Point 58 °F
Humidity 59%
Rainfall 0.00 in
Snow Depth Not available.
UV 2 out of 12
Pollen 5.70 out of 12
Ozone Good
PM2.5 Good
Flu Activity Not available.
METAR KNUQ 230056Z 34019KT 10SM CLR 23/14 A2989 RMK AO2 SLP124 T02280144

More Conditions Fewer Conditions

10-Day Weather Forecast

Almanac

Astronomy

Aug. 22, 2014 Rise Set
Actual Time 6:30 AM PDT 7:51 PM PDT
Civil Twilight 6:03 AM PDT 8:18 PM PDT
Nautical Twilight 5:30 AM PDT 8:50 PM PDT
Astronomical Twilight 4:56 AM PDT 9:25 PM PDT
Moon 3:59 AM PDT (8/22) 6:01 PM PDT (8/22)
Length of Visible Light 14h 15m
Length of Day
13h 20m
Tomorrow will be 2m 13s shorter.
Waning Crescent, 6% of the Moon is Illuminated
Today
Waning Crescent
Aug 25
New
Sep 2
First Quarter
Sep 8
Full
Sep 15
Last Quarter

Today's Extremes

State Highs State Lows

Community

WunderPhotos

Upload Photos

1,746,337 photos uploaded!

WunderBlogs® & News

Nearby

Air Quality

  Air Quality AQ Index Pollutant
Yesterday Good
OZONE
Yesterday Good
PM2.5
Current Good
PM2.5
Current Good
OZONE
Friday Good
OZONE
Saturday Good
OZONE
Sunday Good
OZONE
Monday Good
OZONE
Tuesday Good
PM2.5
Wednesday Moderate
PM2.5

Snow Depth

Station Depth Elevation
Echo Peak 0 in 7800 ft
Leavitt Meadows 1 in 7200 ft
Summit Meadow 1 in 9122 ft
CSS Lab 4 in 6900 ft
Adin Mountain 1 in 6200 ft

Earthquake Activity

City Distance Mag. Time & Date
Berkeley, California 32 miles 2.6 7:41 PM PDT
2014-08-16
King City, California 101 miles 2.7 10:26 PM PDT
2014-08-15
Minimum magnitude displayed is 2.5.

Coastal Water Temperatures

Place Temperature
No Stations Reporting

Nearby Weather Stations